sensor_id;sensor_type;location;lat;lon;timestamp;P1;durP1;ratioP1;P2;durP2;ratioP2
64887;SDS011;51386;53.082;8.816;2024-03-02T00:01:53;16.20;;;12.43;;
64887;SDS011;51386;53.082;8.816;2024-03-02T00:04:21;15.43;;;11.70;;
64887;SDS011;51386;53.082;8.816;2024-03-02T00:06:52;14.93;;;11.93;;
64887;SDS011;51386;53.082;8.816;2024-03-02T00:09:24;18.90;;;12.70;;
64887;SDS011;51386;53.082;8.816;2024-03-02T00:11:53;15.13;;;12.23;;
64887;SDS011;51386;53.082;8.816;2024-03-02T00:14:21;18.00;;;13.03;;
64887;SDS011;51386;53.082;8.816;2024-03-02T00:17:03;15.37;;;11.63;;
64887;SDS011;51386;53.082;8.816;2024-03-02T00:19:32;18.47;;;13.40;;
64887;SDS011;51386;53.082;8.816;2024-03-02T00:22:01;15.57;;;13.00;;
64887;SDS011;51386;53.082;8.816;2024-03-02T00:24:31;15.60;;;12.53;;
64887;SDS011;51386;53.082;8.816;2024-03-02T00:27:03;14.50;;;11.73;;
64887;SDS011;51386;53.082;8.816;2024-03-02T00:29:35;17.27;;;11.60;;
64887;SDS011;51386;53.082;8.816;2024-03-02T00:32:03;12.63;;;11.10;;
64887;SDS011;51386;53.082;8.816;2024-03-02T00:34:40;17.37;;;12.53;;
64887;SDS011;51386;53.082;8.816;2024-03-02T00:37:08;16.77;;;12.43;;
64887;SDS011;51386;53.082;8.816;2024-03-02T00:39:39;15.10;;;11.87;;
64887;SDS011;51386;53.082;8.816;2024-03-02T00:42:07;16.20;;;12.37;;
64887;SDS011;51386;53.082;8.816;2024-03-02T00:44:36;14.93;;;11.80;;
64887;SDS011;51386;53.082;8.816;2024-03-02T00:47:04;14.47;;;11.73;;
64887;SDS011;51386;53.082;8.816;2024-03-02T00:49:33;19.63;;;13.73;;
64887;SDS011;51386;53.082;8.816;2024-03-02T00:52:05;17.47;;;12.27;;
64887;SDS011;51386;53.082;8.816;2024-03-02T00:54:34;16.23;;;11.97;;
64887;SDS011;51386;53.082;8.816;2024-03-02T00:57:03;14.60;;;11.87;;
64887;SDS011;51386;53.082;8.816;2024-03-02T00:59:32;14.60;;;12.03;;
64887;SDS011;51386;53.082;8.816;2024-03-02T01:02:00;13.10;;;10.60;;
64887;SDS011;51386;53.082;8.816;2024-03-02T01:04:29;15.20;;;12.80;;
64887;SDS011;51386;53.082;8.816;2024-03-02T01:06:57;14.40;;;11.43;;
64887;SDS011;51386;53.082;8.816;2024-03-02T01:09:26;14.60;;;11.80;;
64887;SDS011;51386;53.082;8.816;2024-03-02T01:11:55;15.63;;;11.77;;
64887;SDS011;51386;53.082;8.816;2024-03-02T01:14:23;14.90;;;11.60;;
64887;SDS011;51386;53.082;8.816;2024-03-02T01:16:51;15.00;;;11.57;;
64887;SDS011;51386;53.082;8.816;2024-03-02T01:19:20;15.80;;;11.80;;
64887;SDS011;51386;53.082;8.816;2024-03-02T01:21:49;16.93;;;12.83;;
64887;SDS011;51386;53.082;8.816;2024-03-02T01:24:18;17.57;;;11.87;;
64887;SDS011;51386;53.082;8.816;2024-03-02T01:26:46;13.63;;;11.27;;
64887;SDS011;51386;53.082;8.816;2024-03-02T01:29:14;15.90;;;11.47;;
64887;SDS011;51386;53.082;8.816;2024-03-02T01:31:43;12.83;;;11.03;;
64887;SDS011;51386;53.082;8.816;2024-03-02T01:34:11;14.70;;;11.00;;
64887;SDS011;51386;53.082;8.816;2024-03-02T01:36:40;12.40;;;10.23;;
64887;SDS011;51386;53.082;8.816;2024-03-02T01:39:08;16.43;;;11.30;;
64887;SDS011;51386;53.082;8.816;2024-03-02T01:41:37;14.77;;;11.37;;
64887;SDS011;51386;53.082;8.816;2024-03-02T01:44:05;15.00;;;11.13;;
64887;SDS011;51386;53.082;8.816;2024-03-02T01:46:34;14.00;;;10.23;;
64887;SDS011;51386;53.082;8.816;2024-03-02T01:49:03;15.57;;;11.77;;
64887;SDS011;51386;53.082;8.816;2024-03-02T01:51:32;12.33;;;11.03;;
64887;SDS011;51386;53.082;8.816;2024-03-02T01:54:00;14.00;;;10.87;;
64887;SDS011;51386;53.082;8.816;2024-03-02T01:56:29;15.50;;;11.33;;
64887;SDS011;51386;53.082;8.816;2024-03-02T01:58:57;12.60;;;10.20;;
64887;SDS011;51386;53.082;8.816;2024-03-02T02:01:26;15.50;;;11.40;;
64887;SDS011;51386;53.082;8.816;2024-03-02T02:03:54;16.17;;;10.77;;
64887;SDS011;51386;53.082;8.816;2024-03-02T02:06:23;14.83;;;10.87;;
64887;SDS011;51386;53.082;8.816;2024-03-02T02:08:51;13.20;;;10.23;;
64887;SDS011;51386;53.082;8.816;2024-03-02T02:11:20;13.70;;;10.27;;
64887;SDS011;51386;53.082;8.816;2024-03-02T02:13:48;16.30;;;11.63;;
64887;SDS011;51386;53.082;8.816;2024-03-02T02:16:16;14.60;;;11.37;;
64887;SDS011;51386;53.082;8.816;2024-03-02T02:18:45;13.27;;;10.73;;
64887;SDS011;51386;53.082;8.816;2024-03-02T02:21:13;12.67;;;10.63;;
64887;SDS011;51386;53.082;8.816;2024-03-02T02:23:42;13.33;;;9.73;;
64887;SDS011;51386;53.082;8.816;2024-03-02T02:26:14;14.10;;;9.77;;
64887;SDS011;51386;53.082;8.816;2024-03-02T02:28:42;13.47;;;10.40;;
64887;SDS011;51386;53.082;8.816;2024-03-02T02:31:14;15.93;;;11.50;;
64887;SDS011;51386;53.082;8.816;2024-03-02T02:33:42;12.50;;;10.00;;
64887;SDS011;51386;53.082;8.816;2024-03-02T02:36:11;16.80;;;11.03;;
64887;SDS011;51386;53.082;8.816;2024-03-02T02:38:40;12.97;;;11.30;;
64887;SDS011;51386;53.082;8.816;2024-03-02T02:41:15;13.20;;;11.37;;
64887;SDS011;51386;53.082;8.816;2024-03-02T02:43:43;13.57;;;11.67;;
64887;SDS011;51386;53.082;8.816;2024-03-02T02:46:12;14.00;;;10.80;;
64887;SDS011;51386;53.082;8.816;2024-03-02T02:48:40;15.63;;;11.57;;
64887;SDS011;51386;53.082;8.816;2024-03-02T02:51:09;15.10;;;11.40;;
64887;SDS011;51386;53.082;8.816;2024-03-02T02:53:37;13.47;;;11.80;;
64887;SDS011;51386;53.082;8.816;2024-03-02T02:56:08;15.03;;;12.27;;
64887;SDS011;51386;53.082;8.816;2024-03-02T02:58:36;13.87;;;11.67;;
64887;SDS011;51386;53.082;8.816;2024-03-02T03:01:05;15.03;;;12.40;;
64887;SDS011;51386;53.082;8.816;2024-03-02T03:03:33;17.10;;;13.00;;
64887;SDS011;51386;53.082;8.816;2024-03-02T03:06:02;13.90;;;12.10;;
64887;SDS011;51386;53.082;8.816;2024-03-02T03:08:30;16.30;;;13.07;;
64887;SDS011;51386;53.082;8.816;2024-03-02T03:10:59;18.13;;;13.17;;
64887;SDS011;51386;53.082;8.816;2024-03-02T03:13:27;19.90;;;13.50;;
64887;SDS011;51386;53.082;8.816;2024-03-02T03:15:56;16.97;;;12.97;;
64887;SDS011;51386;53.082;8.816;2024-03-02T03:18:24;19.80;;;13.07;;
64887;SDS011;51386;53.082;8.816;2024-03-02T03:20:52;16.13;;;13.13;;
64887;SDS011;51386;53.082;8.816;2024-03-02T03:23:21;16.00;;;13.60;;
64887;SDS011;51386;53.082;8.816;2024-03-02T03:25:49;17.47;;;13.43;;
64887;SDS011;51386;53.082;8.816;2024-03-02T03:28:18;16.10;;;12.57;;
64887;SDS011;51386;53.082;8.816;2024-03-02T03:30:46;16.97;;;13.50;;
64887;SDS011;51386;53.082;8.816;2024-03-02T03:33:15;16.17;;;14.43;;
64887;SDS011;51386;53.082;8.816;2024-03-02T03:35:43;15.87;;;13.60;;
64887;SDS011;51386;53.082;8.816;2024-03-02T03:38:11;16.83;;;13.27;;
64887;SDS011;51386;53.082;8.816;2024-03-02T03:40:40;16.03;;;13.37;;
64887;SDS011;51386;53.082;8.816;2024-03-02T03:43:08;15.80;;;12.80;;
64887;SDS011;51386;53.082;8.816;2024-03-02T03:45:37;16.13;;;12.97;;
64887;SDS011;51386;53.082;8.816;2024-03-02T03:48:05;16.07;;;12.87;;
64887;SDS011;51386;53.082;8.816;2024-03-02T03:50:34;14.87;;;12.90;;
64887;SDS011;51386;53.082;8.816;2024-03-02T03:53:02;17.80;;;14.00;;
64887;SDS011;51386;53.082;8.816;2024-03-02T03:55:31;16.00;;;12.63;;
64887;SDS011;51386;53.082;8.816;2024-03-02T03:57:59;16.33;;;12.47;;
64887;SDS011;51386;53.082;8.816;2024-03-02T04:00:28;15.53;;;12.07;;
64887;SDS011;51386;53.082;8.816;2024-03-02T04:02:56;16.43;;;13.00;;
64887;SDS011;51386;53.082;8.816;2024-03-02T04:05:25;15.07;;;12.13;;
64887;SDS011;51386;53.082;8.816;2024-03-02T04:07:53;15.27;;;12.53;;
64887;SDS011;51386;53.082;8.816;2024-03-02T04:10:21;17.40;;;13.00;;
64887;SDS011;51386;53.082;8.816;2024-03-02T04:12:50;16.17;;;12.60;;
64887;SDS011;51386;53.082;8.816;2024-03-02T04:15:18;15.77;;;12.47;;
64887;SDS011;51386;53.082;8.816;2024-03-02T04:17:47;15.63;;;12.17;;
64887;SDS011;51386;53.082;8.816;2024-03-02T04:20:15;14.47;;;11.67;;
64887;SDS011;51386;53.082;8.816;2024-03-02T04:22:44;16.17;;;12.37;;
64887;SDS011;51386;53.082;8.816;2024-03-02T04:25:12;15.33;;;12.47;;
64887;SDS011;51386;53.082;8.816;2024-03-02T04:27:41;14.00;;;11.17;;
64887;SDS011;51386;53.082;8.816;2024-03-02T04:30:09;14.40;;;11.57;;
64887;SDS011;51386;53.082;8.816;2024-03-02T04:32:38;13.10;;;11.43;;
64887;SDS011;51386;53.082;8.816;2024-03-02T04:35:07;14.80;;;11.27;;
64887;SDS011;51386;53.082;8.816;2024-03-02T04:37:38;13.03;;;11.30;;
64887;SDS011;51386;53.082;8.816;2024-03-02T04:40:06;13.67;;;11.13;;
64887;SDS011;51386;53.082;8.816;2024-03-02T04:42:36;14.40;;;10.63;;
64887;SDS011;51386;53.082;8.816;2024-03-02T04:45:05;11.67;;;10.37;;
64887;SDS011;51386;53.082;8.816;2024-03-02T04:47:34;15.10;;;11.33;;
64887;SDS011;51386;53.082;8.816;2024-03-02T04:50:03;13.87;;;10.77;;
64887;SDS011;51386;53.082;8.816;2024-03-02T04:52:32;16.20;;;11.33;;
64887;SDS011;51386;53.082;8.816;2024-03-02T04:55:00;13.00;;;10.70;;
64887;SDS011;51386;53.082;8.816;2024-03-02T04:57:52;14.47;;;10.30;;
64887;SDS011;51386;53.082;8.816;2024-03-02T05:00:22;11.77;;;9.60;;
64887;SDS011;51386;53.082;8.816;2024-03-02T05:02:51;12.73;;;10.23;;
64887;SDS011;51386;53.082;8.816;2024-03-02T05:05:19;11.77;;;10.33;;
64887;SDS011;51386;53.082;8.816;2024-03-02T05:07:47;12.67;;;9.70;;
64887;SDS011;51386;53.082;8.816;2024-03-02T05:10:16;12.73;;;10.77;;
64887;SDS011;51386;53.082;8.816;2024-03-02T05:12:44;10.93;;;9.37;;
64887;SDS011;51386;53.082;8.816;2024-03-02T05:15:13;12.87;;;9.27;;
64887;SDS011;51386;53.082;8.816;2024-03-02T05:17:42;11.23;;;9.90;;
64887;SDS011;51386;53.082;8.816;2024-03-02T05:20:11;12.77;;;9.97;;
64887;SDS011;51386;53.082;8.816;2024-03-02T05:22:39;12.33;;;9.50;;
64887;SDS011;51386;53.082;8.816;2024-03-02T05:25:08;11.20;;;10.00;;
64887;SDS011;51386;53.082;8.816;2024-03-02T05:27:39;11.17;;;10.00;;
64887;SDS011;51386;53.082;8.816;2024-03-02T05:30:08;11.90;;;10.30;;
64887;SDS011;51386;53.082;8.816;2024-03-02T05:32:37;12.07;;;9.77;;
64887;SDS011;51386;53.082;8.816;2024-03-02T05:35:05;11.93;;;9.47;;
64887;SDS011;51386;53.082;8.816;2024-03-02T05:37:35;12.53;;;10.13;;
64887;SDS011;51386;53.082;8.816;2024-03-02T05:40:03;15.83;;;10.77;;
64887;SDS011;51386;53.082;8.816;2024-03-02T05:42:33;11.50;;;9.50;;
64887;SDS011;51386;53.082;8.816;2024-03-02T05:45:02;11.77;;;10.00;;
64887;SDS011;51386;53.082;8.816;2024-03-02T05:47:31;14.70;;;10.63;;
64887;SDS011;51386;53.082;8.816;2024-03-02T05:50:00;12.60;;;11.17;;
64887;SDS011;51386;53.082;8.816;2024-03-02T05:52:31;13.40;;;10.37;;
64887;SDS011;51386;53.082;8.816;2024-03-02T05:54:59;12.83;;;10.93;;
64887;SDS011;51386;53.082;8.816;2024-03-02T05:57:28;14.97;;;10.90;;
64887;SDS011;51386;53.082;8.816;2024-03-02T06:00:13;13.17;;;11.10;;
64887;SDS011;51386;53.082;8.816;2024-03-02T06:02:44;12.17;;;9.47;;
64887;SDS011;51386;53.082;8.816;2024-03-02T06:05:13;11.80;;;10.23;;
64887;SDS011;51386;53.082;8.816;2024-03-02T06:07:43;12.17;;;10.37;;
64887;SDS011;51386;53.082;8.816;2024-03-02T06:10:11;14.57;;;10.40;;
64887;SDS011;51386;53.082;8.816;2024-03-02T06:12:40;14.33;;;11.33;;
64887;SDS011;51386;53.082;8.816;2024-03-02T06:15:09;12.60;;;10.50;;
64887;SDS011;51386;53.082;8.816;2024-03-02T06:17:38;12.07;;;10.57;;
64887;SDS011;51386;53.082;8.816;2024-03-02T06:20:07;13.83;;;10.97;;
64887;SDS011;51386;53.082;8.816;2024-03-02T06:22:36;13.27;;;11.60;;
64887;SDS011;51386;53.082;8.816;2024-03-02T06:25:05;13.20;;;10.43;;
64887;SDS011;51386;53.082;8.816;2024-03-02T06:27:34;14.23;;;11.47;;
64887;SDS011;51386;53.082;8.816;2024-03-02T06:30:02;15.07;;;12.17;;
64887;SDS011;51386;53.082;8.816;2024-03-02T06:32:31;13.47;;;10.40;;
64887;SDS011;51386;53.082;8.816;2024-03-02T06:35:00;15.07;;;11.70;;
64887;SDS011;51386;53.082;8.816;2024-03-02T06:37:29;13.63;;;11.90;;
64887;SDS011;51386;53.082;8.816;2024-03-02T06:39:57;13.33;;;11.13;;
64887;SDS011;51386;53.082;8.816;2024-03-02T06:42:26;17.67;;;11.60;;
64887;SDS011;51386;53.082;8.816;2024-03-02T06:44:54;14.07;;;11.70;;
64887;SDS011;51386;53.082;8.816;2024-03-02T06:47:23;15.87;;;11.53;;
64887;SDS011;51386;53.082;8.816;2024-03-02T06:49:51;17.00;;;12.43;;
64887;SDS011;51386;53.082;8.816;2024-03-02T06:52:21;15.37;;;11.53;;
64887;SDS011;51386;53.082;8.816;2024-03-02T06:54:50;14.87;;;11.67;;
64887;SDS011;51386;53.082;8.816;2024-03-02T06:57:19;13.57;;;11.93;;
64887;SDS011;51386;53.082;8.816;2024-03-02T06:59:48;15.27;;;11.90;;
64887;SDS011;51386;53.082;8.816;2024-03-02T07:02:18;15.53;;;11.97;;
64887;SDS011;51386;53.082;8.816;2024-03-02T07:04:47;15.17;;;11.77;;
64887;SDS011;51386;53.082;8.816;2024-03-02T07:07:16;14.53;;;12.60;;
64887;SDS011;51386;53.082;8.816;2024-03-02T07:09:44;14.27;;;11.07;;
64887;SDS011;51386;53.082;8.816;2024-03-02T07:12:13;14.67;;;11.87;;
64887;SDS011;51386;53.082;8.816;2024-03-02T07:14:42;16.70;;;13.07;;
64887;SDS011;51386;53.082;8.816;2024-03-02T07:17:30;14.17;;;11.40;;
64887;SDS011;51386;53.082;8.816;2024-03-02T07:19:59;15.83;;;12.50;;
64887;SDS011;51386;53.082;8.816;2024-03-02T07:22:28;15.17;;;12.17;;
64887;SDS011;51386;53.082;8.816;2024-03-02T07:24:56;14.53;;;12.43;;
64887;SDS011;51386;53.082;8.816;2024-03-02T07:27:25;14.97;;;12.23;;
64887;SDS011;51386;53.082;8.816;2024-03-02T07:29:53;19.63;;;15.70;;
64887;SDS011;51386;53.082;8.816;2024-03-02T07:32:21;14.03;;;12.20;;
64887;SDS011;51386;53.082;8.816;2024-03-02T07:34:50;15.13;;;11.60;;
64887;SDS011;51386;53.082;8.816;2024-03-02T07:37:18;17.57;;;13.47;;
64887;SDS011;51386;53.082;8.816;2024-03-02T07:39:47;14.67;;;12.30;;
64887;SDS011;51386;53.082;8.816;2024-03-02T07:42:16;16.70;;;12.40;;
64887;SDS011;51386;53.082;8.816;2024-03-02T07:44:45;18.20;;;12.30;;
64887;SDS011;51386;53.082;8.816;2024-03-02T07:47:13;14.63;;;11.57;;
64887;SDS011;51386;53.082;8.816;2024-03-02T07:49:42;14.53;;;11.77;;
64887;SDS011;51386;53.082;8.816;2024-03-02T07:52:12;16.10;;;12.00;;
64887;SDS011;51386;53.082;8.816;2024-03-02T07:54:41;17.33;;;12.37;;
64887;SDS011;51386;53.082;8.816;2024-03-02T07:57:09;14.47;;;12.20;;
64887;SDS011;51386;53.082;8.816;2024-03-02T07:59:38;14.67;;;12.23;;
64887;SDS011;51386;53.082;8.816;2024-03-02T08:02:06;15.40;;;12.17;;
64887;SDS011;51386;53.082;8.816;2024-03-02T08:04:35;15.67;;;12.77;;
64887;SDS011;51386;53.082;8.816;2024-03-02T08:07:04;16.70;;;12.67;;
64887;SDS011;51386;53.082;8.816;2024-03-02T08:09:33;16.53;;;13.10;;
64887;SDS011;51386;53.082;8.816;2024-03-02T08:12:02;17.70;;;12.93;;
64887;SDS011;51386;53.082;8.816;2024-03-02T08:14:30;15.70;;;12.30;;
64887;SDS011;51386;53.082;8.816;2024-03-02T08:16:59;16.70;;;13.33;;
64887;SDS011;51386;53.082;8.816;2024-03-02T08:19:29;16.60;;;12.97;;
64887;SDS011;51386;53.082;8.816;2024-03-02T08:21:57;18.33;;;12.77;;
64887;SDS011;51386;53.082;8.816;2024-03-02T08:24:27;17.03;;;12.83;;
64887;SDS011;51386;53.082;8.816;2024-03-02T08:26:55;18.60;;;13.60;;
64887;SDS011;51386;53.082;8.816;2024-03-02T08:29:24;18.77;;;12.90;;
64887;SDS011;51386;53.082;8.816;2024-03-02T08:31:52;16.53;;;13.17;;
64887;SDS011;51386;53.082;8.816;2024-03-02T08:34:22;18.07;;;13.60;;
64887;SDS011;51386;53.082;8.816;2024-03-02T08:36:50;18.93;;;12.90;;
64887;SDS011;51386;53.082;8.816;2024-03-02T08:39:18;16.57;;;13.47;;
64887;SDS011;51386;53.082;8.816;2024-03-02T08:41:48;17.13;;;12.67;;
64887;SDS011;51386;53.082;8.816;2024-03-02T08:44:16;15.87;;;12.73;;
64887;SDS011;51386;53.082;8.816;2024-03-02T08:46:45;16.13;;;13.10;;
64887;SDS011;51386;53.082;8.816;2024-03-02T08:49:13;18.30;;;13.93;;
64887;SDS011;51386;53.082;8.816;2024-03-02T08:51:42;21.77;;;12.60;;
64887;SDS011;51386;53.082;8.816;2024-03-02T08:54:10;16.90;;;13.00;;
64887;SDS011;51386;53.082;8.816;2024-03-02T08:56:39;13.27;;;11.87;;
64887;SDS011;51386;53.082;8.816;2024-03-02T08:59:07;14.77;;;12.33;;
64887;SDS011;51386;53.082;8.816;2024-03-02T09:01:35;14.70;;;12.40;;
64887;SDS011;51386;53.082;8.816;2024-03-02T09:04:09;14.57;;;11.97;;
64887;SDS011;51386;53.082;8.816;2024-03-02T09:06:37;19.57;;;13.80;;
64887;SDS011;51386;53.082;8.816;2024-03-02T09:09:06;13.90;;;12.37;;
64887;SDS011;51386;53.082;8.816;2024-03-02T09:11:34;15.57;;;12.50;;
64887;SDS011;51386;53.082;8.816;2024-03-02T09:14:03;14.83;;;12.07;;
64887;SDS011;51386;53.082;8.816;2024-03-02T09:16:32;14.87;;;11.97;;
64887;SDS011;51386;53.082;8.816;2024-03-02T09:19:01;12.07;;;10.83;;
64887;SDS011;51386;53.082;8.816;2024-03-02T09:21:29;12.80;;;11.40;;
64887;SDS011;51386;53.082;8.816;2024-03-02T09:23:58;13.30;;;11.90;;
64887;SDS011;51386;53.082;8.816;2024-03-02T09:26:26;12.00;;;10.73;;
64887;SDS011;51386;53.082;8.816;2024-03-02T09:28:55;13.90;;;11.43;;
64887;SDS011;51386;53.082;8.816;2024-03-02T09:31:23;12.73;;;11.37;;
64887;SDS011;51386;53.082;8.816;2024-03-02T09:33:52;12.93;;;11.23;;
64887;SDS011;51386;53.082;8.816;2024-03-02T09:36:21;11.90;;;10.60;;
64887;SDS011;51386;53.082;8.816;2024-03-02T09:38:50;12.17;;;10.43;;
64887;SDS011;51386;53.082;8.816;2024-03-02T09:41:19;12.77;;;11.03;;
64887;SDS011;51386;53.082;8.816;2024-03-02T09:43:47;16.30;;;10.57;;
64887;SDS011;51386;53.082;8.816;2024-03-02T09:46:16;14.40;;;11.53;;
64887;SDS011;51386;53.082;8.816;2024-03-02T09:48:47;12.50;;;11.10;;
64887;SDS011;51386;53.082;8.816;2024-03-02T09:51:15;12.20;;;10.67;;
64887;SDS011;51386;53.082;8.816;2024-03-02T09:53:47;12.30;;;10.43;;
64887;SDS011;51386;53.082;8.816;2024-03-02T09:56:16;11.60;;;9.70;;
64887;SDS011;51386;53.082;8.816;2024-03-02T09:58:45;12.37;;;9.57;;
64887;SDS011;51386;53.082;8.816;2024-03-02T10:01:14;11.13;;;9.97;;
64887;SDS011;51386;53.082;8.816;2024-03-02T10:03:44;12.60;;;11.30;;
64887;SDS011;51386;53.082;8.816;2024-03-02T10:06:24;12.30;;;10.80;;
64887;SDS011;51386;53.082;8.816;2024-03-02T10:08:55;10.57;;;9.47;;
64887;SDS011;51386;53.082;8.816;2024-03-02T10:14:05;11.70;;;9.83;;
64887;SDS011;51386;53.082;8.816;2024-03-02T10:16:41;11.47;;;10.00;;
64887;SDS011;51386;53.082;8.816;2024-03-02T10:19:15;14.03;;;10.57;;
64887;SDS011;51386;53.082;8.816;2024-03-02T10:21:53;10.97;;;9.43;;
64887;SDS011;51386;53.082;8.816;2024-03-02T10:24:22;11.73;;;10.60;;
64887;SDS011;51386;53.082;8.816;2024-03-02T10:26:51;10.50;;;9.50;;
64887;SDS011;51386;53.082;8.816;2024-03-02T10:29:20;10.47;;;9.47;;
64887;SDS011;51386;53.082;8.816;2024-03-02T10:31:49;11.83;;;10.63;;
64887;SDS011;51386;53.082;8.816;2024-03-02T10:34:17;9.43;;;8.53;;
64887;SDS011;51386;53.082;8.816;2024-03-02T10:36:46;10.40;;;9.40;;
64887;SDS011;51386;53.082;8.816;2024-03-02T10:39:15;10.07;;;9.13;;
64887;SDS011;51386;53.082;8.816;2024-03-02T10:41:45;10.13;;;9.13;;
64887;SDS011;51386;53.082;8.816;2024-03-02T10:44:17;10.00;;;9.00;;
64887;SDS011;51386;53.082;8.816;2024-03-02T10:46:46;9.70;;;8.80;;
64887;SDS011;51386;53.082;8.816;2024-03-02T10:49:18;9.60;;;8.70;;
64887;SDS011;51386;53.082;8.816;2024-03-02T10:51:49;10.43;;;9.40;;
64887;SDS011;51386;53.082;8.816;2024-03-02T10:54:18;9.17;;;8.20;;
64887;SDS011;51386;53.082;8.816;2024-03-02T10:56:46;9.77;;;8.77;;
64887;SDS011;51386;53.082;8.816;2024-03-02T10:59:27;9.00;;;8.10;;
64887;SDS011;51386;53.082;8.816;2024-03-02T11:02:03;9.63;;;8.63;;
64887;SDS011;51386;53.082;8.816;2024-03-02T11:04:34;9.50;;;8.57;;
64887;SDS011;51386;53.082;8.816;2024-03-02T11:07:07;9.73;;;8.37;;
64887;SDS011;51386;53.082;8.816;2024-03-02T11:09:41;9.40;;;8.50;;
64887;SDS011;51386;53.082;8.816;2024-03-02T11:12:23;9.03;;;8.13;;
64887;SDS011;51386;53.082;8.816;2024-03-02T11:15:14;9.43;;;8.20;;
64887;SDS011;51386;53.082;8.816;2024-03-02T11:17:49;9.43;;;8.53;;
64887;SDS011;51386;53.082;8.816;2024-03-02T11:20:18;9.83;;;8.90;;
64887;SDS011;51386;53.082;8.816;2024-03-02T11:22:47;8.47;;;7.57;;
64887;SDS011;51386;53.082;8.816;2024-03-02T11:25:26;9.00;;;8.07;;
64887;SDS011;51386;53.082;8.816;2024-03-02T11:30:48;7.87;;;7.07;;
64887;SDS011;51386;53.082;8.816;2024-03-02T11:33:22;10.73;;;9.13;;
64887;SDS011;51386;53.082;8.816;2024-03-02T11:35:53;12.83;;;8.90;;
64887;SDS011;51386;53.082;8.816;2024-03-02T11:38:24;9.40;;;8.50;;
64887;SDS011;51386;53.082;8.816;2024-03-02T11:40:56;8.13;;;7.30;;
64887;SDS011;51386;53.082;8.816;2024-03-02T11:43:30;8.13;;;7.33;;
64887;SDS011;51386;53.082;8.816;2024-03-02T11:46:00;8.63;;;7.73;;
64887;SDS011;51386;53.082;8.816;2024-03-02T11:48:35;9.07;;;7.27;;
64887;SDS011;51386;53.082;8.816;2024-03-02T11:51:05;8.00;;;7.20;;
64887;SDS011;51386;53.082;8.816;2024-03-02T11:53:34;8.00;;;7.30;;
64887;SDS011;51386;53.082;8.816;2024-03-02T11:56:08;8.00;;;7.27;;
64887;SDS011;51386;53.082;8.816;2024-03-02T11:58:39;8.37;;;7.47;;
64887;SDS011;51386;53.082;8.816;2024-03-02T12:01:09;9.37;;;7.47;;
64887;SDS011;51386;53.082;8.816;2024-03-02T12:03:38;8.47;;;7.43;;
64887;SDS011;51386;53.082;8.816;2024-03-02T12:06:07;8.27;;;7.17;;
64887;SDS011;51386;53.082;8.816;2024-03-02T12:08:36;7.70;;;6.97;;
64887;SDS011;51386;53.082;8.816;2024-03-02T12:11:06;7.93;;;7.13;;
64887;SDS011;51386;53.082;8.816;2024-03-02T12:13:34;7.40;;;6.30;;
64887;SDS011;51386;53.082;8.816;2024-03-02T12:16:03;7.40;;;6.70;;
64887;SDS011;51386;53.082;8.816;2024-03-02T12:18:32;7.00;;;6.40;;
64887;SDS011;51386;53.082;8.816;2024-03-02T12:21:01;6.93;;;6.27;;
64887;SDS011;51386;53.082;8.816;2024-03-02T12:23:31;6.47;;;5.87;;
64887;SDS011;51386;53.082;8.816;2024-03-02T12:26:00;7.07;;;6.37;;
64887;SDS011;51386;53.082;8.816;2024-03-02T12:28:28;16.30;;;14.63;;
64887;SDS011;51386;53.082;8.816;2024-03-02T12:30:58;7.33;;;6.63;;
64887;SDS011;51386;53.082;8.816;2024-03-02T12:33:27;6.87;;;6.17;;
64887;SDS011;51386;53.082;8.816;2024-03-02T12:35:57;6.70;;;6.00;;
64887;SDS011;51386;53.082;8.816;2024-03-02T12:38:26;6.80;;;5.73;;
64887;SDS011;51386;53.082;8.816;2024-03-02T12:40:54;6.17;;;5.60;;
64887;SDS011;51386;53.082;8.816;2024-03-02T12:43:23;7.43;;;6.60;;
64887;SDS011;51386;53.082;8.816;2024-03-02T12:45:52;8.23;;;6.63;;
64887;SDS011;51386;53.082;8.816;2024-03-02T12:48:23;6.87;;;6.20;;
64887;SDS011;51386;53.082;8.816;2024-03-02T12:50:52;5.93;;;5.33;;
64887;SDS011;51386;53.082;8.816;2024-03-02T12:53:21;7.10;;;6.40;;
64887;SDS011;51386;53.082;8.816;2024-03-02T12:55:50;6.40;;;5.80;;
64887;SDS011;51386;53.082;8.816;2024-03-02T12:58:19;6.70;;;5.50;;
64887;SDS011;51386;53.082;8.816;2024-03-02T13:00:50;6.77;;;6.07;;
64887;SDS011;51386;53.082;8.816;2024-03-02T13:03:37;8.07;;;6.33;;
64887;SDS011;51386;53.082;8.816;2024-03-02T13:06:06;6.47;;;5.67;;
64887;SDS011;51386;53.082;8.816;2024-03-02T13:08:35;6.67;;;5.43;;
64887;SDS011;51386;53.082;8.816;2024-03-02T13:11:04;5.73;;;5.23;;
64887;SDS011;51386;53.082;8.816;2024-03-02T13:13:34;6.20;;;5.70;;
64887;SDS011;51386;53.082;8.816;2024-03-02T13:16:03;6.20;;;5.60;;
64887;SDS011;51386;53.082;8.816;2024-03-02T13:18:40;7.30;;;6.70;;
64887;SDS011;51386;53.082;8.816;2024-03-02T13:21:09;7.60;;;6.83;;
64887;SDS011;51386;53.082;8.816;2024-03-02T13:23:37;7.53;;;6.83;;
64887;SDS011;51386;53.082;8.816;2024-03-02T13:26:06;7.37;;;6.57;;
64887;SDS011;51386;53.082;8.816;2024-03-02T13:28:35;7.87;;;7.07;;
64887;SDS011;51386;53.082;8.816;2024-03-02T13:31:03;7.17;;;6.47;;
64887;SDS011;51386;53.082;8.816;2024-03-02T13:33:32;7.43;;;6.73;;
64887;SDS011;51386;53.082;8.816;2024-03-02T13:36:01;7.53;;;6.60;;
64887;SDS011;51386;53.082;8.816;2024-03-02T13:38:30;7.27;;;6.40;;
64887;SDS011;51386;53.082;8.816;2024-03-02T13:40:58;6.93;;;6.33;;
64887;SDS011;51386;53.082;8.816;2024-03-02T13:43:28;6.97;;;6.27;;
64887;SDS011;51386;53.082;8.816;2024-03-02T13:45:59;7.10;;;6.40;;
64887;SDS011;51386;53.082;8.816;2024-03-02T13:48:29;7.73;;;7.00;;
64887;SDS011;51386;53.082;8.816;2024-03-02T13:50:58;6.40;;;5.80;;
64887;SDS011;51386;53.082;8.816;2024-03-02T13:53:27;7.87;;;6.50;;
64887;SDS011;51386;53.082;8.816;2024-03-02T13:55:55;7.30;;;6.60;;
64887;SDS011;51386;53.082;8.816;2024-03-02T13:58:24;7.30;;;5.63;;
64887;SDS011;51386;53.082;8.816;2024-03-02T14:00:52;6.10;;;5.50;;
64887;SDS011;51386;53.082;8.816;2024-03-02T14:03:21;6.97;;;5.43;;
64887;SDS011;51386;53.082;8.816;2024-03-02T14:05:50;6.33;;;5.73;;
64887;SDS011;51386;53.082;8.816;2024-03-02T14:08:20;6.53;;;5.93;;
64887;SDS011;51386;53.082;8.816;2024-03-02T14:10:48;6.60;;;5.70;;
64887;SDS011;51386;53.082;8.816;2024-03-02T14:13:17;5.90;;;5.30;;
64887;SDS011;51386;53.082;8.816;2024-03-02T14:15:46;8.33;;;4.97;;
64887;SDS011;51386;53.082;8.816;2024-03-02T14:18:14;6.30;;;5.70;;
64887;SDS011;51386;53.082;8.816;2024-03-02T14:20:42;5.60;;;5.03;;
64887;SDS011;51386;53.082;8.816;2024-03-02T14:23:12;5.53;;;5.03;;
64887;SDS011;51386;53.082;8.816;2024-03-02T14:25:40;5.37;;;4.90;;
64887;SDS011;51386;53.082;8.816;2024-03-02T14:28:08;4.93;;;4.53;;
64887;SDS011;51386;53.082;8.816;2024-03-02T14:30:57;4.90;;;4.50;;
64887;SDS011;51386;53.082;8.816;2024-03-02T14:33:28;5.70;;;5.03;;
64887;SDS011;51386;53.082;8.816;2024-03-02T14:35:58;6.67;;;5.67;;
64887;SDS011;51386;53.082;8.816;2024-03-02T14:38:27;5.97;;;5.47;;
64887;SDS011;51386;53.082;8.816;2024-03-02T14:40:56;5.70;;;5.13;;
64887;SDS011;51386;53.082;8.816;2024-03-02T14:43:25;5.37;;;4.87;;
64887;SDS011;51386;53.082;8.816;2024-03-02T14:45:53;5.83;;;5.33;;
64887;SDS011;51386;53.082;8.816;2024-03-02T14:48:22;5.30;;;4.80;;